sensor_id;sensor_type;location;lat;lon;timestamp;P1;durP1;ratioP1;P2;durP2;ratioP2
39454;SDS011;25155;41.890;23.446;2023-05-07T00:01:43;5.03;;;3.85;;
39454;SDS011;25155;41.890;23.446;2023-05-07T00:04:11;5.93;;;4.22;;
39454;SDS011;25155;41.890;23.446;2023-05-07T00:06:38;5.07;;;3.90;;
39454;SDS011;25155;41.890;23.446;2023-05-07T00:09:06;4.68;;;3.53;;
39454;SDS011;25155;41.890;23.446;2023-05-07T00:11:33;5.70;;;4.32;;
39454;SDS011;25155;41.890;23.446;2023-05-07T00:14:00;4.82;;;3.65;;
39454;SDS011;25155;41.890;23.446;2023-05-07T00:16:27;5.40;;;3.83;;
39454;SDS011;25155;41.890;23.446;2023-05-07T00:18:56;4.88;;;3.78;;
39454;SDS011;25155;41.890;23.446;2023-05-07T00:21:23;5.75;;;4.00;;
39454;SDS011;25155;41.890;23.446;2023-05-07T00:23:51;6.55;;;4.72;;
39454;SDS011;25155;41.890;23.446;2023-05-07T00:26:19;5.15;;;4.03;;
39454;SDS011;25155;41.890;23.446;2023-05-07T00:28:46;7.55;;;4.45;;
39454;SDS011;25155;41.890;23.446;2023-05-07T00:31:13;5.20;;;4.00;;
39454;SDS011;25155;41.890;23.446;2023-05-07T00:33:40;5.63;;;4.05;;
39454;SDS011;25155;41.890;23.446;2023-05-07T00:36:08;5.57;;;4.13;;
39454;SDS011;25155;41.890;23.446;2023-05-07T00:38:36;5.18;;;3.72;;
39454;SDS011;25155;41.890;23.446;2023-05-07T00:41:03;5.88;;;4.15;;
39454;SDS011;25155;41.890;23.446;2023-05-07T00:43:30;6.10;;;3.90;;
39454;SDS011;25155;41.890;23.446;2023-05-07T00:45:57;7.03;;;5.30;;
39454;SDS011;25155;41.890;23.446;2023-05-07T00:48:24;8.50;;;6.53;;
39454;SDS011;25155;41.890;23.446;2023-05-07T00:50:52;7.40;;;5.30;;
39454;SDS011;25155;41.890;23.446;2023-05-07T00:53:21;6.28;;;5.00;;
39454;SDS011;25155;41.890;23.446;2023-05-07T00:55:48;7.00;;;4.93;;
39454;SDS011;25155;41.890;23.446;2023-05-07T00:58:15;6.72;;;5.28;;
39454;SDS011;25155;41.890;23.446;2023-05-07T01:00:42;7.13;;;5.60;;
39454;SDS011;25155;41.890;23.446;2023-05-07T01:03:10;6.90;;;5.60;;
39454;SDS011;25155;41.890;23.446;2023-05-07T01:05:37;5.82;;;4.47;;
39454;SDS011;25155;41.890;23.446;2023-05-07T01:08:04;5.38;;;4.00;;
39454;SDS011;25155;41.890;23.446;2023-05-07T01:10:33;4.90;;;3.75;;
39454;SDS011;25155;41.890;23.446;2023-05-07T01:13:00;4.70;;;3.28;;
39454;SDS011;25155;41.890;23.446;2023-05-07T01:15:28;4.88;;;3.78;;
39454;SDS011;25155;41.890;23.446;2023-05-07T01:17:55;4.90;;;3.67;;
39454;SDS011;25155;41.890;23.446;2023-05-07T01:20:23;4.97;;;3.85;;
39454;SDS011;25155;41.890;23.446;2023-05-07T01:22:52;5.25;;;4.10;;
39454;SDS011;25155;41.890;23.446;2023-05-07T01:25:20;4.43;;;3.40;;
39454;SDS011;25155;41.890;23.446;2023-05-07T01:27:47;4.70;;;3.45;;
39454;SDS011;25155;41.890;23.446;2023-05-07T01:30:15;5.28;;;3.85;;
39454;SDS011;25155;41.890;23.446;2023-05-07T01:32:46;4.63;;;3.38;;
39454;SDS011;25155;41.890;23.446;2023-05-07T01:35:18;4.35;;;3.15;;
39454;SDS011;25155;41.890;23.446;2023-05-07T01:37:47;6.03;;;4.20;;
39454;SDS011;25155;41.890;23.446;2023-05-07T01:40:17;5.53;;;4.32;;
39454;SDS011;25155;41.890;23.446;2023-05-07T01:42:44;6.00;;;4.47;;
39454;SDS011;25155;41.890;23.446;2023-05-07T01:45:13;5.63;;;4.05;;
39454;SDS011;25155;41.890;23.446;2023-05-07T01:47:40;5.20;;;3.88;;
39454;SDS011;25155;41.890;23.446;2023-05-07T01:50:08;4.60;;;3.50;;
39454;SDS011;25155;41.890;23.446;2023-05-07T01:52:36;5.35;;;3.50;;
39454;SDS011;25155;41.890;23.446;2023-05-07T01:55:05;4.60;;;3.47;;
39454;SDS011;25155;41.890;23.446;2023-05-07T01:57:34;5.57;;;3.80;;
39454;SDS011;25155;41.890;23.446;2023-05-07T02:00:02;4.53;;;3.38;;
39454;SDS011;25155;41.890;23.446;2023-05-07T02:02:31;5.18;;;3.55;;
39454;SDS011;25155;41.890;23.446;2023-05-07T02:04:59;5.38;;;3.72;;
39454;SDS011;25155;41.890;23.446;2023-05-07T02:07:26;5.22;;;3.63;;
39454;SDS011;25155;41.890;23.446;2023-05-07T02:09:53;5.25;;;3.40;;
39454;SDS011;25155;41.890;23.446;2023-05-07T02:12:21;4.78;;;3.53;;
39454;SDS011;25155;41.890;23.446;2023-05-07T02:14:50;4.47;;;3.13;;
39454;SDS011;25155;41.890;23.446;2023-05-07T02:17:17;6.32;;;4.57;;
39454;SDS011;25155;41.890;23.446;2023-05-07T02:19:44;5.75;;;4.05;;
39454;SDS011;25155;41.890;23.446;2023-05-07T02:22:11;5.38;;;4.30;;
39454;SDS011;25155;41.890;23.446;2023-05-07T02:24:38;7.25;;;5.18;;
39454;SDS011;25155;41.890;23.446;2023-05-07T02:27:05;6.00;;;4.40;;
39454;SDS011;25155;41.890;23.446;2023-05-07T02:29:32;5.72;;;4.10;;
39454;SDS011;25155;41.890;23.446;2023-05-07T02:32:01;4.72;;;3.70;;
39454;SDS011;25155;41.890;23.446;2023-05-07T02:34:28;6.00;;;4.50;;
39454;SDS011;25155;41.890;23.446;2023-05-07T02:36:55;8.57;;;6.43;;
39454;SDS011;25155;41.890;23.446;2023-05-07T02:39:22;7.75;;;5.88;;
39454;SDS011;25155;41.890;23.446;2023-05-07T02:41:49;7.68;;;6.43;;
39454;SDS011;25155;41.890;23.446;2023-05-07T02:44:16;6.82;;;5.45;;
39454;SDS011;25155;41.890;23.446;2023-05-07T02:46:43;5.82;;;4.70;;
39454;SDS011;25155;41.890;23.446;2023-05-07T02:49:12;6.72;;;4.90;;
39454;SDS011;25155;41.890;23.446;2023-05-07T02:51:39;6.32;;;5.03;;
39454;SDS011;25155;41.890;23.446;2023-05-07T02:54:06;5.88;;;4.88;;
39454;SDS011;25155;41.890;23.446;2023-05-07T02:56:34;6.50;;;4.32;;
39454;SDS011;25155;41.890;23.446;2023-05-07T02:59:01;7.30;;;4.43;;
39454;SDS011;25155;41.890;23.446;2023-05-07T03:01:28;8.30;;;5.65;;
39454;SDS011;25155;41.890;23.446;2023-05-07T03:03:55;6.13;;;4.45;;
39454;SDS011;25155;41.890;23.446;2023-05-07T03:06:23;6.22;;;4.70;;
39454;SDS011;25155;41.890;23.446;2023-05-07T03:08:51;7.45;;;5.68;;
39454;SDS011;25155;41.890;23.446;2023-05-07T03:11:18;6.45;;;5.05;;
39454;SDS011;25155;41.890;23.446;2023-05-07T03:13:45;6.53;;;4.90;;
39454;SDS011;25155;41.890;23.446;2023-05-07T03:16:14;6.25;;;4.97;;
39454;SDS011;25155;41.890;23.446;2023-05-07T03:18:42;6.43;;;4.65;;
39454;SDS011;25155;41.890;23.446;2023-05-07T03:21:09;5.72;;;4.30;;
39454;SDS011;25155;41.890;23.446;2023-05-07T03:23:38;6.15;;;4.63;;
39454;SDS011;25155;41.890;23.446;2023-05-07T03:26:05;5.20;;;4.10;;
39454;SDS011;25155;41.890;23.446;2023-05-07T03:28:32;5.28;;;4.15;;
39454;SDS011;25155;41.890;23.446;2023-05-07T03:31:00;5.38;;;4.25;;
39454;SDS011;25155;41.890;23.446;2023-05-07T03:33:27;6.30;;;5.00;;
39454;SDS011;25155;41.890;23.446;2023-05-07T03:35:54;6.22;;;4.80;;
39454;SDS011;25155;41.890;23.446;2023-05-07T03:38:21;6.80;;;4.45;;
39454;SDS011;25155;41.890;23.446;2023-05-07T03:40:50;6.32;;;5.28;;
39454;SDS011;25155;41.890;23.446;2023-05-07T03:43:17;6.95;;;5.22;;
39454;SDS011;25155;41.890;23.446;2023-05-07T03:45:44;6.88;;;5.07;;
39454;SDS011;25155;41.890;23.446;2023-05-07T03:48:11;7.00;;;6.10;;
39454;SDS011;25155;41.890;23.446;2023-05-07T03:50:38;9.05;;;6.22;;
39454;SDS011;25155;41.890;23.446;2023-05-07T03:53:05;11.98;;;9.07;;
39454;SDS011;25155;41.890;23.446;2023-05-07T03:55:32;8.02;;;6.35;;
39454;SDS011;25155;41.890;23.446;2023-05-07T03:58:01;10.05;;;8.93;;
39454;SDS011;25155;41.890;23.446;2023-05-07T04:00:28;12.00;;;7.75;;
39454;SDS011;25155;41.890;23.446;2023-05-07T04:02:58;6.78;;;5.75;;
39454;SDS011;25155;41.890;23.446;2023-05-07T04:05:25;6.60;;;5.50;;
39454;SDS011;25155;41.890;23.446;2023-05-07T04:07:52;6.35;;;5.10;;
39454;SDS011;25155;41.890;23.446;2023-05-07T04:10:19;5.55;;;4.60;;
39454;SDS011;25155;41.890;23.446;2023-05-07T04:12:47;5.93;;;4.40;;
39454;SDS011;25155;41.890;23.446;2023-05-07T04:15:15;7.80;;;5.45;;
39454;SDS011;25155;41.890;23.446;2023-05-07T04:17:42;8.60;;;7.03;;
39454;SDS011;25155;41.890;23.446;2023-05-07T04:20:10;16.17;;;13.52;;
39454;SDS011;25155;41.890;23.446;2023-05-07T04:22:42;16.13;;;13.45;;
39454;SDS011;25155;41.890;23.446;2023-05-07T04:25:09;19.95;;;17.35;;
39454;SDS011;25155;41.890;23.446;2023-05-07T04:27:36;20.58;;;18.48;;
39454;SDS011;25155;41.890;23.446;2023-05-07T04:30:03;21.08;;;18.88;;
39454;SDS011;25155;41.890;23.446;2023-05-07T04:32:33;24.50;;;21.95;;
39454;SDS011;25155;41.890;23.446;2023-05-07T04:35:01;31.67;;;28.38;;
39454;SDS011;25155;41.890;23.446;2023-05-07T04:37:28;26.85;;;24.05;;
39454;SDS011;25155;41.890;23.446;2023-05-07T04:39:55;32.30;;;28.85;;
39454;SDS011;25155;41.890;23.446;2023-05-07T04:42:23;33.45;;;30.05;;
39454;SDS011;25155;41.890;23.446;2023-05-07T04:44:52;34.40;;;30.77;;
39454;SDS011;25155;41.890;23.446;2023-05-07T04:47:19;27.98;;;25.08;;
39454;SDS011;25155;41.890;23.446;2023-05-07T04:49:48;28.23;;;25.33;;
39454;SDS011;25155;41.890;23.446;2023-05-07T04:52:15;23.08;;;20.63;;
39454;SDS011;25155;41.890;23.446;2023-05-07T04:54:44;20.77;;;18.58;;
39454;SDS011;25155;41.890;23.446;2023-05-07T04:57:11;18.13;;;16.23;;
39454;SDS011;25155;41.890;23.446;2023-05-07T04:59:38;26.98;;;23.83;;
39454;SDS011;25155;41.890;23.446;2023-05-07T05:02:05;35.10;;;31.45;;
39454;SDS011;25155;41.890;23.446;2023-05-07T05:04:32;33.42;;;29.85;;
39454;SDS011;25155;41.890;23.446;2023-05-07T05:07:01;31.60;;;28.27;;
39454;SDS011;25155;41.890;23.446;2023-05-07T05:09:30;25.75;;;23.05;;
39454;SDS011;25155;41.890;23.446;2023-05-07T05:11:57;24.88;;;21.88;;
39454;SDS011;25155;41.890;23.446;2023-05-07T05:14:24;26.23;;;20.77;;
39454;SDS011;25155;41.890;23.446;2023-05-07T05:16:51;23.98;;;21.27;;
39454;SDS011;25155;41.890;23.446;2023-05-07T05:19:18;24.15;;;20.10;;
39454;SDS011;25155;41.890;23.446;2023-05-07T05:21:45;23.15;;;20.50;;
39454;SDS011;25155;41.890;23.446;2023-05-07T05:24:13;26.70;;;23.58;;
39454;SDS011;25155;41.890;23.446;2023-05-07T05:26:41;29.42;;;26.20;;
39454;SDS011;25155;41.890;23.446;2023-05-07T05:29:08;27.80;;;24.90;;
39454;SDS011;25155;41.890;23.446;2023-05-07T05:31:35;32.65;;;29.20;;
39454;SDS011;25155;41.890;23.446;2023-05-07T05:34:02;30.20;;;27.00;;
39454;SDS011;25155;41.890;23.446;2023-05-07T05:36:29;26.30;;;23.55;;
39454;SDS011;25155;41.890;23.446;2023-05-07T05:38:57;26.60;;;23.73;;
39454;SDS011;25155;41.890;23.446;2023-05-07T05:41:25;26.33;;;23.55;;
39454;SDS011;25155;41.890;23.446;2023-05-07T05:43:52;27.60;;;22.95;;
39454;SDS011;25155;41.890;23.446;2023-05-07T05:46:19;26.42;;;23.60;;
39454;SDS011;25155;41.890;23.446;2023-05-07T05:48:46;25.80;;;23.10;;
39454;SDS011;25155;41.890;23.446;2023-05-07T05:51:13;23.85;;;20.83;;
39454;SDS011;25155;41.890;23.446;2023-05-07T05:53:40;23.52;;;21.02;;
39454;SDS011;25155;41.890;23.446;2023-05-07T05:56:07;20.55;;;16.95;;
39454;SDS011;25155;41.890;23.446;2023-05-07T05:58:36;20.48;;;18.08;;
39454;SDS011;25155;41.890;23.446;2023-05-07T06:01:03;20.30;;;18.13;;
39454;SDS011;25155;41.890;23.446;2023-05-07T06:03:31;17.55;;;15.68;;
39454;SDS011;25155;41.890;23.446;2023-05-07T06:05:58;17.45;;;15.20;;
39454;SDS011;25155;41.890;23.446;2023-05-07T06:08:28;17.05;;;14.75;;
39454;SDS011;25155;41.890;23.446;2023-05-07T06:10:56;13.45;;;11.38;;
39454;SDS011;25155;41.890;23.446;2023-05-07T06:13:23;20.33;;;16.60;;
39454;SDS011;25155;41.890;23.446;2023-05-07T06:15:52;23.92;;;19.13;;
39454;SDS011;25155;41.890;23.446;2023-05-07T06:18:19;24.38;;;19.95;;
39454;SDS011;25155;41.890;23.446;2023-05-07T06:20:46;24.35;;;18.70;;
39454;SDS011;25155;41.890;23.446;2023-05-07T06:23:14;20.88;;;17.48;;
39454;SDS011;25155;41.890;23.446;2023-05-07T06:25:41;20.95;;;17.13;;
39454;SDS011;25155;41.890;23.446;2023-05-07T06:28:08;21.00;;;17.48;;
39454;SDS011;25155;41.890;23.446;2023-05-07T06:30:36;17.50;;;14.05;;
39454;SDS011;25155;41.890;23.446;2023-05-07T06:33:05;15.82;;;13.98;;
39454;SDS011;25155;41.890;23.446;2023-05-07T06:35:32;20.35;;;16.45;;
39454;SDS011;25155;41.890;23.446;2023-05-07T06:37:59;15.23;;;12.40;;
39454;SDS011;25155;41.890;23.446;2023-05-07T06:40:26;17.40;;;14.75;;
39454;SDS011;25155;41.890;23.446;2023-05-07T06:42:53;18.52;;;15.48;;
39454;SDS011;25155;41.890;23.446;2023-05-07T06:45:20;17.60;;;15.65;;
39454;SDS011;25155;41.890;23.446;2023-05-07T06:47:48;17.05;;;14.90;;
39454;SDS011;25155;41.890;23.446;2023-05-07T06:50:16;19.20;;;15.77;;
39454;SDS011;25155;41.890;23.446;2023-05-07T06:52:43;17.17;;;14.20;;
39454;SDS011;25155;41.890;23.446;2023-05-07T06:55:10;18.75;;;15.27;;
39454;SDS011;25155;41.890;23.446;2023-05-07T06:57:37;16.13;;;14.43;;
39454;SDS011;25155;41.890;23.446;2023-05-07T07:00:05;18.08;;;14.32;;
39454;SDS011;25155;41.890;23.446;2023-05-07T07:02:34;14.88;;;12.95;;
39454;SDS011;25155;41.890;23.446;2023-05-07T07:05:01;14.18;;;12.68;;
39454;SDS011;25155;41.890;23.446;2023-05-07T07:07:29;16.20;;;11.90;;
39454;SDS011;25155;41.890;23.446;2023-05-07T07:09:56;12.50;;;10.48;;
39454;SDS011;25155;41.890;23.446;2023-05-07T07:12:24;13.77;;;11.77;;
39454;SDS011;25155;41.890;23.446;2023-05-07T07:14:51;14.45;;;10.60;;
39454;SDS011;25155;41.890;23.446;2023-05-07T07:17:18;13.52;;;11.43;;
39454;SDS011;25155;41.890;23.446;2023-05-07T07:19:45;12.45;;;11.15;;
39454;SDS011;25155;41.890;23.446;2023-05-07T07:22:12;14.25;;;11.25;;
39454;SDS011;25155;41.890;23.446;2023-05-07T07:24:41;13.70;;;11.80;;
39454;SDS011;25155;41.890;23.446;2023-05-07T07:27:08;11.85;;;10.13;;
39454;SDS011;25155;41.890;23.446;2023-05-07T07:29:35;14.95;;;12.55;;
39454;SDS011;25155;41.890;23.446;2023-05-07T07:32:02;10.80;;;9.30;;
39454;SDS011;25155;41.890;23.446;2023-05-07T07:34:29;11.07;;;9.95;;
39454;SDS011;25155;41.890;23.446;2023-05-07T07:36:56;12.57;;;11.27;;
39454;SDS011;25155;41.890;23.446;2023-05-07T07:39:23;12.13;;;10.65;;
39454;SDS011;25155;41.890;23.446;2023-05-07T07:41:52;11.00;;;9.82;;
39454;SDS011;25155;41.890;23.446;2023-05-07T07:44:19;12.48;;;10.88;;
39454;SDS011;25155;41.890;23.446;2023-05-07T07:46:46;11.50;;;10.40;;
39454;SDS011;25155;41.890;23.446;2023-05-07T07:49:13;12.77;;;11.48;;
39454;SDS011;25155;41.890;23.446;2023-05-07T07:51:40;14.95;;;12.52;;
39454;SDS011;25155;41.890;23.446;2023-05-07T07:54:08;11.48;;;9.77;;
39454;SDS011;25155;41.890;23.446;2023-05-07T07:56:35;8.25;;;6.60;;
39454;SDS011;25155;41.890;23.446;2023-05-07T07:59:03;7.45;;;6.18;;
39454;SDS011;25155;41.890;23.446;2023-05-07T08:01:31;7.78;;;6.07;;
39454;SDS011;25155;41.890;23.446;2023-05-07T08:03:58;5.80;;;4.50;;
39454;SDS011;25155;41.890;23.446;2023-05-07T08:06:25;10.57;;;6.85;;
39454;SDS011;25155;41.890;23.446;2023-05-07T08:08:52;11.48;;;8.35;;
39454;SDS011;25155;41.890;23.446;2023-05-07T08:11:19;10.40;;;8.45;;
39454;SDS011;25155;41.890;23.446;2023-05-07T08:13:46;10.52;;;8.55;;
39454;SDS011;25155;41.890;23.446;2023-05-07T08:16:15;11.10;;;8.20;;
39454;SDS011;25155;41.890;23.446;2023-05-07T08:18:42;9.05;;;8.15;;
39454;SDS011;25155;41.890;23.446;2023-05-07T08:21:09;9.75;;;8.15;;
39454;SDS011;25155;41.890;23.446;2023-05-07T08:23:37;9.05;;;7.75;;
39454;SDS011;25155;41.890;23.446;2023-05-07T08:26:04;8.40;;;7.45;;
39454;SDS011;25155;41.890;23.446;2023-05-07T08:28:31;8.55;;;7.50;;
39454;SDS011;25155;41.890;23.446;2023-05-07T08:30:58;9.60;;;7.82;;
39454;SDS011;25155;41.890;23.446;2023-05-07T08:33:27;8.70;;;6.82;;
39454;SDS011;25155;41.890;23.446;2023-05-07T08:35:54;10.05;;;7.75;;
39454;SDS011;25155;41.890;23.446;2023-05-07T08:38:22;9.43;;;7.57;;
39454;SDS011;25155;41.890;23.446;2023-05-07T08:40:49;11.52;;;8.88;;
39454;SDS011;25155;41.890;23.446;2023-05-07T08:43:16;9.68;;;8.15;;
39454;SDS011;25155;41.890;23.446;2023-05-07T08:45:45;8.50;;;6.60;;
39454;SDS011;25155;41.890;23.446;2023-05-07T08:48:15;7.72;;;6.25;;
39454;SDS011;25155;41.890;23.446;2023-05-07T08:50:45;9.27;;;7.45;;
39454;SDS011;25155;41.890;23.446;2023-05-07T08:53:12;9.27;;;6.97;;
39454;SDS011;25155;41.890;23.446;2023-05-07T08:55:41;9.65;;;7.65;;
39454;SDS011;25155;41.890;23.446;2023-05-07T08:58:08;9.35;;;7.53;;
39454;SDS011;25155;41.890;23.446;2023-05-07T09:00:36;7.70;;;6.65;;
39454;SDS011;25155;41.890;23.446;2023-05-07T09:03:05;8.05;;;5.95;;
39454;SDS011;25155;41.890;23.446;2023-05-07T09:05:32;7.22;;;5.68;;
39454;SDS011;25155;41.890;23.446;2023-05-07T09:08:01;6.38;;;4.95;;
39454;SDS011;25155;41.890;23.446;2023-05-07T09:10:29;6.43;;;3.80;;
39454;SDS011;25155;41.890;23.446;2023-05-07T09:12:56;5.55;;;3.60;;
39454;SDS011;25155;41.890;23.446;2023-05-07T09:15:23;5.72;;;3.90;;
39454;SDS011;25155;41.890;23.446;2023-05-07T09:17:50;5.00;;;3.70;;
39454;SDS011;25155;41.890;23.446;2023-05-07T09:20:17;5.30;;;3.30;;
39454;SDS011;25155;41.890;23.446;2023-05-07T09:22:45;4.78;;;3.50;;
39454;SDS011;25155;41.890;23.446;2023-05-07T09:25:13;5.13;;;3.80;;
39454;SDS011;25155;41.890;23.446;2023-05-07T09:27:41;5.97;;;3.92;;
39454;SDS011;25155;41.890;23.446;2023-05-07T09:30:09;4.05;;;2.90;;
39454;SDS011;25155;41.890;23.446;2023-05-07T09:32:36;5.00;;;3.40;;
39454;SDS011;25155;41.890;23.446;2023-05-07T09:35:04;8.35;;;4.35;;
39454;SDS011;25155;41.890;23.446;2023-05-07T09:37:32;4.82;;;3.50;;
39454;SDS011;25155;41.890;23.446;2023-05-07T09:39:59;5.80;;;3.45;;
39454;SDS011;25155;41.890;23.446;2023-05-07T09:42:28;4.70;;;3.55;;
39454;SDS011;25155;41.890;23.446;2023-05-07T09:44:55;5.10;;;3.42;;
39454;SDS011;25155;41.890;23.446;2023-05-07T09:47:24;4.50;;;3.00;;
39454;SDS011;25155;41.890;23.446;2023-05-07T09:49:53;4.72;;;3.08;;
39454;SDS011;25155;41.890;23.446;2023-05-07T09:52:24;4.55;;;3.00;;
39454;SDS011;25155;41.890;23.446;2023-05-07T09:54:58;4.72;;;3.50;;
39454;SDS011;25155;41.890;23.446;2023-05-07T09:57:28;4.88;;;3.33;;
39454;SDS011;25155;41.890;23.446;2023-05-07T09:59:57;4.50;;;3.13;;
39454;SDS011;25155;41.890;23.446;2023-05-07T10:02:27;5.43;;;3.40;;
39454;SDS011;25155;41.890;23.446;2023-05-07T10:04:57;4.10;;;2.90;;
39454;SDS011;25155;41.890;23.446;2023-05-07T10:07:25;4.35;;;2.80;;
39454;SDS011;25155;41.890;23.446;2023-05-07T10:09:53;4.63;;;2.97;;
39454;SDS011;25155;41.890;23.446;2023-05-07T10:12:22;5.47;;;3.08;;
39454;SDS011;25155;41.890;23.446;2023-05-07T10:14:51;7.07;;;3.13;;
39454;SDS011;25155;41.890;23.446;2023-05-07T10:17:20;6.40;;;3.50;;
39454;SDS011;25155;41.890;23.446;2023-05-07T10:19:50;4.60;;;3.42;;
39454;SDS011;25155;41.890;23.446;2023-05-07T10:22:19;5.13;;;3.28;;
39454;SDS011;25155;41.890;23.446;2023-05-07T10:24:48;9.00;;;3.10;;
39454;SDS011;25155;41.890;23.446;2023-05-07T10:27:19;5.13;;;3.33;;
39454;SDS011;25155;41.890;23.446;2023-05-07T10:29:51;4.40;;;3.10;;
39454;SDS011;25155;41.890;23.446;2023-05-07T10:32:33;5.93;;;3.40;;
39454;SDS011;25155;41.890;23.446;2023-05-07T10:35:06;5.90;;;3.30;;
39454;SDS011;25155;41.890;23.446;2023-05-07T10:37:37;4.60;;;3.13;;
39454;SDS011;25155;41.890;23.446;2023-05-07T10:40:05;5.47;;;3.45;;
39454;SDS011;25155;41.890;23.446;2023-05-07T10:42:33;4.40;;;3.00;;
39454;SDS011;25155;41.890;23.446;2023-05-07T10:45:12;5.10;;;3.42;;
39454;SDS011;25155;41.890;23.446;2023-05-07T10:50:33;4.90;;;3.03;;
39454;SDS011;25155;41.890;23.446;2023-05-07T10:53:20;5.90;;;3.05;;
39454;SDS011;25155;41.890;23.446;2023-05-07T10:58:55;5.15;;;3.10;;
39454;SDS011;25155;41.890;23.446;2023-05-07T11:01:53;5.55;;;3.10;;
39454;SDS011;25155;41.890;23.446;2023-05-07T11:04:23;4.90;;;3.15;;
39454;SDS011;25155;41.890;23.446;2023-05-07T11:10:00;4.45;;;3.00;;
39454;SDS011;25155;41.890;23.446;2023-05-07T11:12:49;4.32;;;2.95;;
39454;SDS011;25155;41.890;23.446;2023-05-07T11:15:34;6.13;;;3.13;;
39454;SDS011;25155;41.890;23.446;2023-05-07T11:18:03;4.30;;;3.10;;
39454;SDS011;25155;41.890;23.446;2023-05-07T11:20:46;4.40;;;2.80;;
39454;SDS011;25155;41.890;23.446;2023-05-07T11:26:26;7.68;;;3.60;;
39454;SDS011;25155;41.890;23.446;2023-05-07T11:28:55;4.28;;;3.00;;
39454;SDS011;25155;41.890;23.446;2023-05-07T11:31:26;3.40;;;2.67;;
39454;SDS011;25155;41.890;23.446;2023-05-07T11:33:56;4.15;;;2.70;;
39454;SDS011;25155;41.890;23.446;2023-05-07T11:36:24;4.65;;;2.70;;
39454;SDS011;25155;41.890;23.446;2023-05-07T11:38:52;4.32;;;3.10;;
39454;SDS011;25155;41.890;23.446;2023-05-07T11:41:19;5.30;;;2.92;;
39454;SDS011;25155;41.890;23.446;2023-05-07T11:43:54;3.72;;;2.70;;
39454;SDS011;25155;41.890;23.446;2023-05-07T11:46:22;5.80;;;3.20;;
39454;SDS011;25155;41.890;23.446;2023-05-07T11:48:49;3.90;;;2.85;;
39454;SDS011;25155;41.890;23.446;2023-05-07T11:51:21;4.10;;;3.03;;
39454;SDS011;25155;41.890;23.446;2023-05-07T11:53:51;4.57;;;3.08;;
39454;SDS011;25155;41.890;23.446;2023-05-07T11:56:18;5.57;;;3.13;;
39454;SDS011;25155;41.890;23.446;2023-05-07T11:58:46;6.78;;;3.13;;
39454;SDS011;25155;41.890;23.446;2023-05-07T12:01:14;4.30;;;3.03;;
39454;SDS011;25155;41.890;23.446;2023-05-07T12:03:54;4.30;;;3.05;;
39454;SDS011;25155;41.890;23.446;2023-05-07T12:06:22;4.68;;;3.50;;
39454;SDS011;25155;41.890;23.446;2023-05-07T12:08:49;4.25;;;2.95;;
39454;SDS011;25155;41.890;23.446;2023-05-07T12:11:24;5.93;;;3.17;;
39454;SDS011;25155;41.890;23.446;2023-05-07T12:13:51;5.18;;;3.30;;
39454;SDS011;25155;41.890;23.446;2023-05-07T12:16:20;5.63;;;2.90;;
39454;SDS011;25155;41.890;23.446;2023-05-07T12:18:48;5.50;;;3.28;;
39454;SDS011;25155;41.890;23.446;2023-05-07T12:21:15;4.10;;;2.70;;
39454;SDS011;25155;41.890;23.446;2023-05-07T12:23:44;4.05;;;2.92;;
39454;SDS011;25155;41.890;23.446;2023-05-07T12:26:11;4.00;;;2.70;;
39454;SDS011;25155;41.890;23.446;2023-05-07T12:28:39;3.97;;;2.60;;
39454;SDS011;25155;41.890;23.446;2023-05-07T12:31:06;5.75;;;3.20;;
39454;SDS011;25155;41.890;23.446;2023-05-07T12:33:34;4.55;;;2.90;;
39454;SDS011;25155;41.890;23.446;2023-05-07T12:36:05;4.88;;;3.10;;
39454;SDS011;25155;41.890;23.446;2023-05-07T12:38:34;5.00;;;3.17;;
39454;SDS011;25155;41.890;23.446;2023-05-07T12:41:04;4.93;;;2.95;;
39454;SDS011;25155;41.890;23.446;2023-05-07T12:43:32;6.40;;;3.35;;
39454;SDS011;25155;41.890;23.446;2023-05-07T12:46:00;4.13;;;2.80;;
39454;SDS011;25155;41.890;23.446;2023-05-07T12:48:30;5.35;;;2.80;;
39454;SDS011;25155;41.890;23.446;2023-05-07T12:50:58;4.05;;;2.72;;
39454;SDS011;25155;41.890;23.446;2023-05-07T12:53:26;4.38;;;2.83;;
39454;SDS011;25155;41.890;23.446;2023-05-07T12:55:55;5.00;;;2.90;;
39454;SDS011;25155;41.890;23.446;2023-05-07T12:58:26;4.43;;;2.95;;
39454;SDS011;25155;41.890;23.446;2023-05-07T13:00:54;3.92;;;2.50;;
39454;SDS011;25155;41.890;23.446;2023-05-07T13:03:24;4.78;;;2.88;;
39454;SDS011;25155;41.890;23.446;2023-05-07T13:05:53;3.70;;;2.40;;
39454;SDS011;25155;41.890;23.446;2023-05-07T13:08:28;4.38;;;2.75;;
39454;SDS011;25155;41.890;23.446;2023-05-07T13:10:57;4.15;;;2.65;;
39454;SDS011;25155;41.890;23.446;2023-05-07T13:13:30;4.13;;;2.60;;
39454;SDS011;25155;41.890;23.446;2023-05-07T13:15:57;4.20;;;2.80;;
39454;SDS011;25155;41.890;23.446;2023-05-07T13:18:25;3.75;;;2.50;;
39454;SDS011;25155;41.890;23.446;2023-05-07T13:20:53;3.92;;;2.75;;
39454;SDS011;25155;41.890;23.446;2023-05-07T13:23:20;4.18;;;2.83;;
39454;SDS011;25155;41.890;23.446;2023-05-07T13:25:47;3.45;;;2.72;;
39454;SDS011;25155;41.890;23.446;2023-05-07T13:28:14;4.53;;;3.00;;
39454;SDS011;25155;41.890;23.446;2023-05-07T13:30:43;4.10;;;2.80;;
39454;SDS011;25155;41.890;23.446;2023-05-07T13:33:10;4.10;;;2.78;;
39454;SDS011;25155;41.890;23.446;2023-05-07T13:35:37;3.80;;;2.38;;
39454;SDS011;25155;41.890;23.446;2023-05-07T13:38:05;3.30;;;2.47;;
39454;SDS011;25155;41.890;23.446;2023-05-07T13:40:32;3.85;;;2.60;;
39454;SDS011;25155;41.890;23.446;2023-05-07T13:42:59;4.50;;;2.60;;
39454;SDS011;25155;41.890;23.446;2023-05-07T13:45:28;3.80;;;2.53;;
39454;SDS011;25155;41.890;23.446;2023-05-07T13:47:57;5.32;;;2.58;;
39454;SDS011;25155;41.890;23.446;2023-05-07T13:50:24;3.58;;;2.60;;
39454;SDS011;25155;41.890;23.446;2023-05-07T13:52:52;4.20;;;2.75;;
39454;SDS011;25155;41.890;23.446;2023-05-07T13:55:19;4.47;;;2.65;;
39454;SDS011;25155;41.890;23.446;2023-05-07T13:57:53;4.13;;;2.70;;
39454;SDS011;25155;41.890;23.446;2023-05-07T14:00:22;3.92;;;2.42;;
39454;SDS011;25155;41.890;23.446;2023-05-07T14:02:49;3.83;;;2.58;;
39454;SDS011;25155;41.890;23.446;2023-05-07T14:05:18;3.90;;;2.40;;
39454;SDS011;25155;41.890;23.446;2023-05-07T14:07:45;4.05;;;2.30;;
39454;SDS011;25155;41.890;23.446;2023-05-07T14:10:14;5.40;;;2.67;;
39454;SDS011;25155;41.890;23.446;2023-05-07T14:12:41;4.93;;;2.50;;
39454;SDS011;25155;41.890;23.446;2023-05-07T14:15:08;4.40;;;2.80;;
39454;SDS011;25155;41.890;23.446;2023-05-07T14:17:36;4.53;;;2.33;;
39454;SDS011;25155;41.890;23.446;2023-05-07T14:20:04;6.18;;;2.70;;
39454;SDS011;25155;41.890;23.446;2023-05-07T14:22:34;4.32;;;2.40;;
39454;SDS011;25155;41.890;23.446;2023-05-07T14:25:01;3.22;;;2.33;;
39454;SDS011;25155;41.890;23.446;2023-05-07T14:27:28;4.25;;;2.53;;
39454;SDS011;25155;41.890;23.446;2023-05-07T14:29:55;3.45;;;2.47;;
39454;SDS011;25155;41.890;23.446;2023-05-07T14:32:23;3.60;;;2.45;;
39454;SDS011;25155;41.890;23.446;2023-05-07T14:34:50;3.70;;;2.42;;
39454;SDS011;25155;41.890;23.446;2023-05-07T14:37:17;4.05;;;2.70;;
39454;SDS011;25155;41.890;23.446;2023-05-07T14:39:46;4.00;;;2.50;;
39454;SDS011;25155;41.890;23.446;2023-05-07T14:42:13;4.15;;;2.58;;
39454;SDS011;25155;41.890;23.446;2023-05-07T14:44:40;4.10;;;2.50;;
39454;SDS011;25155;41.890;23.446;2023-05-07T14:47:08;4.47;;;2.47;;